Time;durP1;ratioP1;P1;durP2;ratioP2;P2;SDS_P1;SDS_P2;PMS_P1;PMS_P2;Temp;Humidity;BMP_temperature;BMP_pressure;BME280_temperature;BME280_humidity;BME280_pressure;Samples;Min_cycle;Max_cycle;Signal;HPM_P1;HPM_P2
2023/09/12 00:00:58;;;;;;;16.13;10.35;;;20.50;99.90;;;;;;5029766;28;20199;-77
2023/09/12 00:03:25;;;;;;;19.55;10.23;;;20.50;99.90;;;;;;5016864;28;20196;-77
2023/09/12 00:05:54;;;;;;;16.13;9.98;;;20.50;99.90;;;;;;5022921;28;20296;-77
2023/09/12 00:08:21;;;;;;;16.27;10.65;;;20.60;99.90;;;;;;5022562;28;20415;-77
2023/09/12 00:10:47;;;;;;;16.27;10.35;;;20.60;99.90;;;;;;5014434;28;20231;-77
2023/09/12 00:13:14;;;;;;;16.92;10.07;;;20.50;99.90;;;;;;5014757;28;20204;-77
2023/09/12 00:15:41;;;;;;;14.70;10.07;;;20.40;99.90;;;;;;5015233;28;20257;-77
2023/09/12 00:18:08;;;;;;;17.42;9.43;;;20.40;99.90;;;;;;5019194;28;20230;-77
2023/09/12 00:20:35;;;;;;;11.18;8.88;;;20.40;99.90;;;;;;5017249;28;20395;-77
2023/09/12 00:23:05;;;;;;;16.40;9.82;;;20.40;99.90;;;;;;5024362;28;20296;-77
2023/09/12 00:25:31;;;;;;;15.52;10.90;;;20.40;99.90;;;;;;5017256;28;20275;-77
2023/09/12 00:27:58;;;;;;;15.48;11.27;;;20.30;99.90;;;;;;5013721;28;20218;-77
2023/09/12 00:30:25;;;;;;;17.60;11.95;;;20.20;99.90;;;;;;5027167;28;20207;-77
2023/09/12 00:32:52;;;;;;;19.60;13.15;;;20.20;99.90;;;;;;5022599;28;20202;-77
2023/09/12 00:35:19;;;;;;;20.30;13.25;;;20.40;99.90;;;;;;5015833;28;20596;-77
2023/09/12 00:37:46;;;;;;;19.42;13.48;;;20.60;99.90;;;;;;5027925;28;20719;-77
2023/09/12 00:40:14;;;;;;;18.48;12.80;;;20.60;99.90;;;;;;5027984;28;20197;-78
2023/09/12 00:42:41;;;;;;;22.70;13.55;;;20.70;99.90;;;;;;5025408;28;20703;-77
2023/09/12 00:45:09;;;;;;;18.48;13.60;;;20.60;99.90;;;;;;5021265;28;20231;-78
2023/09/12 00:47:36;;;;;;;19.30;13.40;;;20.70;99.90;;;;;;5015321;28;20641;-77
2023/09/12 00:50:05;;;;;;;19.85;12.57;;;20.70;99.90;;;;;;5015681;28;20196;-78
2023/09/12 00:52:35;;;;;;;18.70;12.85;;;20.70;99.90;;;;;;5019428;28;20204;-78
2023/09/12 00:55:03;;;;;;;18.13;12.55;;;20.60;99.90;;;;;;5018029;28;20230;-78
2023/09/12 00:57:33;;;;;;;14.93;11.80;;;20.60;99.90;;;;;;5026206;28;20222;-78
2023/09/12 00:59:59;;;;;;;18.92;11.48;;;20.60;99.90;;;;;;5031997;28;20249;-78
2023/09/12 01:02:26;;;;;;;19.65;12.13;;;20.50;99.90;;;;;;5022159;28;20200;-78
2023/09/12 01:04:53;;;;;;;18.15;11.98;;;20.30;99.90;;;;;;5025566;28;20223;-78
2023/09/12 01:07:21;;;;;;;16.45;11.02;;;20.30;99.90;;;;;;5017319;28;20200;-78
2023/09/12 01:09:47;;;;;;;19.58;12.02;;;20.20;99.90;;;;;;5019988;28;20202;-78
2023/09/12 01:12:14;;;;;;;18.70;12.32;;;20.10;99.90;;;;;;5020853;28;20276;-77
2023/09/12 01:14:42;;;;;;;18.30;11.93;;;20.10;99.90;;;;;;5016750;28;20227;-78
2023/09/12 01:17:09;;;;;;;17.38;11.55;;;20.10;99.90;;;;;;5015381;28;20207;-79
2023/09/12 01:19:36;;;;;;;18.40;12.45;;;20.10;99.90;;;;;;5025746;28;20218;-78
2023/09/12 01:22:29;;;;;;;20.70;14.63;;;20.10;99.90;;;;;;5033138;28;20203;-79
2023/09/12 01:25:21;;;;;;;17.17;12.98;;;20.10;99.90;;;;;;5017651;28;20227;-78
2023/09/12 01:27:52;;;;;;;21.00;13.43;;;20.10;99.90;;;;;;5033720;28;20263;-77
2023/09/12 01:30:21;;;;;;;22.38;12.95;;;19.90;99.90;;;;;;5024242;28;20204;-77
2023/09/12 01:32:49;;;;;;;15.10;11.85;;;19.70;99.90;;;;;;5021817;28;20191;-78
2023/09/12 01:35:16;;;;;;;17.98;12.93;;;19.60;99.90;;;;;;5027312;28;20311;-78
2023/09/12 01:37:42;;;;;;;20.67;12.80;;;19.40;99.90;;;;;;5028494;28;20219;-78
2023/09/12 01:40:11;;;;;;;18.17;12.82;;;19.40;99.90;;;;;;5019970;28;20203;-78
2023/09/12 01:42:46;;;;;;;17.75;12.05;;;19.80;99.90;;;;;;5016896;28;20862;-78
2023/09/12 01:45:17;;;;;;;18.42;12.80;;;19.80;99.90;;;;;;5035005;28;20234;-78
2023/09/12 01:47:47;;;;;;;16.92;11.68;;;19.40;99.90;;;;;;5016335;28;20206;-79
2023/09/12 01:50:14;;;;;;;15.57;11.65;;;19.40;99.90;;;;;;5030357;28;20203;-78
2023/09/12 01:52:42;;;;;;;16.02;11.80;;;19.50;99.90;;;;;;5020471;28;20250;-78
2023/09/12 01:55:10;;;;;;;17.10;12.13;;;19.60;99.90;;;;;;5017125;28;20231;-78
2023/09/12 01:57:37;;;;;;;20.38;13.43;;;19.60;99.90;;;;;;5016843;28;20224;-78
2023/09/12 02:00:05;;;;;;;20.23;14.00;;;19.50;99.90;;;;;;5026586;28;20276;-78
2023/09/12 02:02:33;;;;;;;21.55;13.20;;;19.30;99.90;;;;;;5019802;28;20562;-77
2023/09/12 02:05:09;;;;;;;19.23;13.27;;;19.20;99.90;;;;;;5020711;28;20224;-78
2023/09/12 02:07:39;;;;;;;18.52;13.30;;;19.20;99.90;;;;;;5019641;28;20576;-78
2023/09/12 02:10:07;;;;;;;21.92;14.30;;;18.90;99.90;;;;;;5019677;28;20204;-78
2023/09/12 02:12:34;;;;;;;16.83;12.23;;;19.00;99.90;;;;;;5039981;28;20200;-77
2023/09/12 02:15:01;;;;;;;16.48;12.57;;;19.10;99.90;;;;;;5028137;28;20224;-79
2023/09/12 02:17:27;;;;;;;19.48;14.13;;;19.10;99.90;;;;;;5020088;28;20203;-78
2023/09/12 02:19:56;;;;;;;21.52;15.10;;;19.30;99.90;;;;;;5038023;28;20210;-78
2023/09/12 02:22:22;;;;;;;22.55;16.10;;;19.40;99.90;;;;;;5038919;28;20207;-79
2023/09/12 02:24:50;;;;;;;24.35;16.23;;;19.40;99.90;;;;;;5021468;28;20226;-78
2023/09/12 02:27:17;;;;;;;21.75;15.30;;;19.40;99.90;;;;;;5020550;28;20201;-78
2023/09/12 02:29:44;;;;;;;20.75;16.00;;;19.30;99.90;;;;;;5022153;28;20200;-78
2023/09/12 02:32:11;;;;;;;26.70;17.52;;;19.20;99.90;;;;;;5019864;28;20677;-78
2023/09/12 02:34:38;;;;;;;20.95;15.48;;;19.20;99.90;;;;;;5019168;28;20618;-78
2023/09/12 02:37:06;;;;;;;21.98;16.55;;;19.10;99.90;;;;;;5036376;28;20196;-78
2023/09/12 02:39:33;;;;;;;19.10;15.20;;;19.20;99.90;;;;;;5023173;28;20593;-78
2023/09/12 02:42:00;;;;;;;23.35;16.23;;;19.10;99.90;;;;;;5034098;28;20539;-77
2023/09/12 02:44:27;;;;;;;25.23;16.77;;;19.00;99.90;;;;;;5040354;28;20214;-78
2023/09/12 02:46:54;;;;;;;26.02;20.58;;;19.00;99.90;;;;;;5035398;28;20192;-78
2023/09/12 02:49:20;;;;;;;42.25;32.53;;;19.10;99.90;;;;;;5019764;28;20201;-78
2023/09/12 02:51:47;;;;;;;24.60;16.05;;;19.00;99.90;;;;;;5020338;28;20210;-78
2023/09/12 02:54:15;;;;;;;24.00;16.63;;;19.10;99.90;;;;;;5028841;28;20204;-77
2023/09/12 02:56:42;;;;;;;22.05;16.85;;;19.20;99.90;;;;;;5029433;28;20247;-77
2023/09/12 02:59:09;;;;;;;24.25;18.02;;;19.10;99.90;;;;;;5020039;28;20504;-78
2023/09/12 03:01:36;;;;;;;24.92;18.40;;;19.10;99.90;;;;;;5019210;28;20292;-77
2023/09/12 03:04:04;;;;;;;22.98;18.08;;;19.20;99.90;;;;;;5037245;28;20200;-78
2023/09/12 03:06:31;;;;;;;23.20;18.10;;;19.20;99.90;;;;;;5024694;28;20598;-78
2023/09/12 03:08:58;;;;;;;25.05;18.38;;;19.10;99.90;;;;;;5021062;28;20251;-78
2023/09/12 03:11:29;;;;;;;21.80;17.75;;;19.20;99.90;;;;;;5017043;28;20201;-77
2023/09/12 03:13:56;;;;;;;22.30;16.75;;;19.20;99.90;;;;;;5016507;28;20628;-78
2023/09/12 03:16:24;;;;;;;21.20;17.27;;;19.00;99.90;;;;;;5022001;28;20311;-78
2023/09/12 03:18:50;;;;;;;21.70;17.15;;;19.10;99.90;;;;;;5019048;28;20224;-77
2023/09/12 03:21:17;;;;;;;24.92;17.98;;;19.00;99.90;;;;;;5016746;28;20208;-78
2023/09/12 03:23:44;;;;;;;22.27;17.85;;;18.90;99.90;;;;;;5018408;28;20248;-77
2023/09/12 03:26:11;;;;;;;21.33;17.08;;;19.00;99.90;;;;;;5018121;28;20217;-78
2023/09/12 03:28:41;;;;;;;21.48;15.63;;;19.10;99.90;;;;;;5016285;28;20216;-78
2023/09/12 03:31:11;;;;;;;22.23;16.33;;;19.00;99.90;;;;;;5009899;28;20196;-81
2023/09/12 03:33:38;;;;;;;22.02;15.38;;;19.00;99.90;;;;;;5018009;28;20246;-78
2023/09/12 03:36:06;;;;;;;20.88;15.02;;;19.00;99.90;;;;;;5029869;28;20640;-78
2023/09/12 03:38:33;;;;;;;21.15;15.55;;;19.00;99.90;;;;;;5017647;28;20667;-77
2023/09/12 03:41:00;;;;;;;22.45;15.68;;;19.10;99.90;;;;;;5029354;28;20200;-78
2023/09/12 03:43:27;;;;;;;21.70;15.07;;;19.20;99.90;;;;;;5029812;28;20218;-77
2023/09/12 03:45:55;;;;;;;20.33;15.43;;;19.20;99.90;;;;;;5018035;28;20303;-78
2023/09/12 03:48:22;;;;;;;22.00;15.57;;;19.10;99.90;;;;;;5017678;28;20560;-78
2023/09/12 03:50:49;;;;;;;20.67;16.17;;;18.80;99.90;;;;;;5014810;28;20215;-78
2023/09/12 03:53:16;;;;;;;21.40;16.63;;;18.90;99.90;;;;;;5017951;28;20214;-78
2023/09/12 03:55:43;;;;;;;23.75;18.40;;;18.90;99.90;;;;;;5015468;28;20246;-78
2023/09/12 03:58:09;;;;;;;29.10;20.55;;;19.00;99.90;;;;;;5025050;28;20287;-77
2023/09/12 04:00:36;;;;;;;28.60;20.05;;;19.00;99.90;;;;;;5034386;28;20199;-77
2023/09/12 04:03:05;;;;;;;29.48;19.13;;;18.90;99.90;;;;;;5030255;28;20200;-78
2023/09/12 04:05:32;;;;;;;25.95;19.67;;;18.80;99.90;;;;;;5023151;28;20283;-77
2023/09/12 04:07:58;;;;;;;29.38;20.52;;;18.90;99.90;;;;;;5033237;28;20203;-77
2023/09/12 04:10:25;;;;;;;25.70;18.55;;;18.80;99.90;;;;;;5015376;28;20212;-77
2023/09/12 04:12:52;;;;;;;25.13;19.45;;;18.90;99.90;;;;;;5014806;28;20204;-78
2023/09/12 04:15:19;;;;;;;23.13;18.45;;;19.00;99.90;;;;;;5016119;28;20598;-77
2023/09/12 04:17:45;;;;;;;27.30;21.48;;;19.00;99.90;;;;;;5035560;28;20561;-78
2023/09/12 04:20:14;;;;;;;25.45;20.50;;;19.10;99.90;;;;;;5021385;28;20235;-77
2023/09/12 04:22:41;;;;;;;24.20;17.65;;;19.10;99.90;;;;;;5014571;28;20200;-78
2023/09/12 04:25:09;;;;;;;23.77;16.35;;;19.20;99.90;;;;;;5015411;28;20248;-77
2023/09/12 04:27:36;;;;;;;23.00;17.23;;;19.00;99.90;;;;;;5014654;28;20669;-77
2023/09/12 04:30:03;;;;;;;20.83;17.15;;;19.00;99.90;;;;;;5023054;28;20196;-77
2023/09/12 04:32:30;;;;;;;20.27;16.02;;;19.10;99.90;;;;;;5027375;28;20258;-77
2023/09/12 04:34:57;;;;;;;22.55;16.67;;;19.20;99.90;;;;;;5017228;28;20600;-77
2023/09/12 04:37:25;;;;;;;23.52;17.17;;;19.20;99.90;;;;;;4993517;28;20201;-77
2023/09/12 04:39:52;;;;;;;22.88;17.75;;;19.10;99.90;;;;;;5001247;28;20259;-78
2023/09/12 04:42:19;;;;;;;24.58;18.58;;;19.20;99.90;;;;;;5012198;28;20210;-78
2023/09/12 04:44:46;;;;;;;24.35;18.63;;;19.30;99.90;;;;;;5011786;28;20228;-77
2023/09/12 04:47:13;;;;;;;26.77;18.77;;;19.20;99.90;;;;;;5029723;28;20202;-78
2023/09/12 04:49:40;;;;;;;25.33;18.83;;;19.00;99.90;;;;;;5031954;28;20199;-78
2023/09/12 04:52:07;;;;;;;25.92;17.40;;;19.10;99.90;;;;;;5025741;28;20214;-77
2023/09/12 04:54:36;;;;;;;22.58;17.55;;;19.10;99.90;;;;;;5017683;28;20212;-77
2023/09/12 04:57:03;;;;;;;24.83;16.92;;;19.20;99.90;;;;;;5018495;28;20569;-77
2023/09/12 04:59:30;;;;;;;21.42;17.83;;;19.10;99.90;;;;;;5025044;28;20714;-77
2023/09/12 05:01:56;;;;;;;24.98;19.73;;;19.20;99.90;;;;;;5013916;28;20222;-78
2023/09/12 05:04:23;;;;;;;23.85;19.10;;;19.10;99.90;;;;;;5014644;28;20287;-77
2023/09/12 05:06:50;;;;;;;22.83;18.30;;;19.30;99.90;;;;;;5016519;28;20645;-77
2023/09/12 05:09:17;;;;;;;23.52;18.85;;;19.30;99.90;;;;;;5014745;28;20200;-78
2023/09/12 05:11:45;;;;;;;23.98;17.85;;;19.30;99.90;;;;;;5016213;28;20200;-78
2023/09/12 05:14:12;;;;;;;24.73;18.60;;;19.30;99.90;;;;;;5020212;28;20219;-79
2023/09/12 05:16:38;;;;;;;23.27;17.63;;;19.10;99.90;;;;;;5017254;28;20230;-78
2023/09/12 05:19:06;;;;;;;21.23;17.10;;;19.20;99.90;;;;;;5014288;28;20739;-77
2023/09/12 05:21:32;;;;;;;22.85;17.00;;;19.30;99.90;;;;;;5027046;28;20207;-79
2023/09/12 05:23:59;;;;;;;24.80;17.95;;;19.40;99.90;;;;;;5025622;28;20196;-79
2023/09/12 05:26:28;;;;;;;23.10;17.92;;;19.40;99.90;;;;;;5018733;28;20311;-78
2023/09/12 05:28:56;;;;;;;26.13;21.38;;;19.50;99.90;;;;;;5019280;28;20232;-79
2023/09/12 05:31:23;;;;;;;24.92;20.65;;;19.40;99.90;;;;;;5035051;28;20278;-76
2023/09/12 05:33:49;;;;;;;27.65;21.23;;;19.50;99.90;;;;;;5029807;28;20200;-80
2023/09/12 05:36:16;;;;;;;27.55;20.63;;;19.40;99.90;;;;;;5028703;28;20230;-79
2023/09/12 05:38:43;;;;;;;28.98;21.85;;;19.40;99.90;;;;;;5012069;28;20315;-78
2023/09/12 05:41:10;;;;;;;23.95;21.27;;;19.40;99.90;;;;;;5022040;28;20208;-78
2023/09/12 05:43:37;;;;;;;24.45;20.38;;;19.40;99.90;;;;;;5021519;28;20212;-79
2023/09/12 05:46:05;;;;;;;28.15;22.17;;;19.40;99.90;;;;;;5021707;28;20232;-80
2023/09/12 05:48:32;;;;;;;28.73;22.63;;;19.40;99.90;;;;;;5022208;28;20627;-79
2023/09/12 05:50:59;;;;;;;26.85;21.20;;;19.50;99.90;;;;;;5019577;28;20204;-78
2023/09/12 05:53:25;;;;;;;25.15;20.05;;;19.40;99.90;;;;;;5022184;28;20208;-79
2023/09/12 05:55:52;;;;;;;26.77;20.20;;;19.40;99.90;;;;;;5021961;28;20732;-78
2023/09/12 05:58:19;;;;;;;25.52;19.52;;;19.40;99.90;;;;;;5020083;28;20211;-78
2023/09/12 06:00:47;;;;;;;30.60;21.30;;;19.40;99.90;;;;;;5021208;28;20616;-77
2023/09/12 06:03:17;;;;;;;26.13;20.77;;;19.40;99.90;;;;;;5019739;28;20212;-78
2023/09/12 06:05:44;;;;;;;23.52;19.88;;;19.40;99.90;;;;;;5017962;28;20243;-78
2023/09/12 06:08:11;;;;;;;28.92;20.63;;;19.50;99.90;;;;;;5018408;28;20210;-78
2023/09/12 06:10:38;;;;;;;28.08;22.25;;;19.50;99.90;;;;;;5018992;28;20243;-78
2023/09/12 06:13:04;;;;;;;28.25;22.38;;;19.50;99.90;;;;;;5019763;28;20224;-77
2023/09/12 06:15:31;;;;;;;26.55;21.30;;;19.40;99.90;;;;;;5017131;28;20291;-79
2023/09/12 06:17:58;;;;;;;31.30;22.60;;;19.50;99.90;;;;;;5018681;28;20200;-78
2023/09/12 06:20:26;;;;;;;28.25;22.10;;;19.50;99.90;;;;;;5017607;28;20216;-78
2023/09/12 06:22:53;;;;;;;31.25;22.90;;;19.60;99.90;;;;;;5020167;28;20201;-78
2023/09/12 06:25:20;;;;;;;37.55;25.58;;;19.50;99.90;;;;;;5019412;28;20307;-79
2023/09/12 06:27:47;;;;;;;34.78;24.58;;;19.20;99.90;;;;;;5018202;28;20224;-77
2023/09/12 06:30:14;;;;;;;33.75;24.67;;;19.00;99.90;;;;;;5018929;28;20287;-78
2023/09/12 06:32:41;;;;;;;39.67;25.80;;;18.90;99.90;;;;;;5024238;28;20200;-79
2023/09/12 06:35:10;;;;;;;33.67;25.00;;;18.60;99.90;;;;;;5040121;28;20592;-78
2023/09/12 06:37:39;;;;;;;33.47;25.88;;;18.60;99.90;;;;;;5041794;28;20218;-78
2023/09/12 06:40:07;;;;;;;36.63;26.25;;;18.60;99.90;;;;;;5040738;28;20746;-78
2023/09/12 06:42:33;;;;;;;33.97;26.50;;;18.50;99.90;;;;;;5039957;28;20590;-78
2023/09/12 06:45:00;;;;;;;35.33;26.08;;;18.60;99.90;;;;;;5039181;28;20220;-78
2023/09/12 06:47:27;;;;;;;33.65;25.30;;;18.60;99.90;;;;;;5038282;28;20212;-78
2023/09/12 06:49:53;;;;;;;32.88;24.27;;;18.70;99.90;;;;;;5038325;28;20199;-78
2023/09/12 06:52:20;;;;;;;29.80;23.52;;;18.70;99.90;;;;;;5038460;28;20207;-77
2023/09/12 06:54:48;;;;;;;32.45;25.58;;;18.80;99.90;;;;;;5033804;28;20219;-78
2023/09/12 06:57:15;;;;;;;31.70;24.88;;;19.00;99.90;;;;;;5038872;28;20206;-78
2023/09/12 06:59:42;;;;;;;32.50;26.58;;;19.10;99.90;;;;;;5037906;28;20874;-77
2023/09/12 07:02:09;;;;;;;29.80;25.05;;;19.00;99.90;;;;;;5018381;28;20204;-78
2023/09/12 07:04:36;;;;;;;33.40;25.85;;;19.10;99.90;;;;;;5017850;28;20214;-78
2023/09/12 07:07:04;;;;;;;27.77;23.88;;;18.90;99.90;;;;;;5018191;28;20208;-78
2023/09/12 07:09:31;;;;;;;28.88;23.67;;;19.10;99.90;;;;;;5018317;28;20200;-78
2023/09/12 07:11:59;;;;;;;30.08;22.95;;;19.10;99.90;;;;;;5018022;28;20206;-78
2023/09/12 07:14:26;;;;;;;29.20;23.27;;;19.10;99.90;;;;;;5017921;28;20210;-78
2023/09/12 07:16:53;;;;;;;33.20;26.02;;;19.10;99.90;;;;;;5017484;28;20303;-77
2023/09/12 07:19:19;;;;;;;32.40;26.83;;;19.10;99.90;;;;;;5021542;28;20220;-78
2023/09/12 07:21:46;;;;;;;31.92;26.38;;;19.10;99.90;;;;;;5017546;28;20201;-78
2023/09/12 07:24:13;;;;;;;33.80;28.08;;;19.10;99.90;;;;;;5018080;28;20200;-76
2023/09/12 07:26:40;;;;;;;35.42;27.15;;;19.20;99.90;;;;;;5018225;28;20230;-77
2023/09/12 07:29:08;;;;;;;34.17;27.17;;;19.10;99.90;;;;;;5018671;28;20204;-78
2023/09/12 07:31:34;;;;;;;31.13;25.83;;;19.10;99.90;;;;;;5018065;28;20200;-77
2023/09/12 07:34:02;;;;;;;31.80;26.10;;;19.10;99.90;;;;;;5011358;28;20227;-79
2023/09/12 07:36:29;;;;;;;30.20;24.38;;;19.10;99.90;;;;;;5012731;28;20224;-78
2023/09/12 07:38:55;;;;;;;29.70;23.75;;;19.10;99.90;;;;;;5009247;28;20201;-78
2023/09/12 07:41:22;;;;;;;30.23;24.52;;;19.20;99.90;;;;;;5010019;28;20204;-78
2023/09/12 07:43:49;;;;;;;29.60;26.38;;;19.20;99.90;;;;;;5010507;28;20673;-78
2023/09/12 07:46:17;;;;;;;31.52;25.27;;;19.30;99.90;;;;;;5017452;28;20225;-78
2023/09/12 07:48:44;;;;;;;28.98;25.70;;;19.40;99.90;;;;;;5010455;28;20200;-79
2023/09/12 07:51:15;;;;;;;31.80;25.05;;;19.40;99.90;;;;;;5012701;28;20196;-79
2023/09/12 07:53:42;;;;;;;30.13;24.88;;;19.50;99.90;;;;;;5012694;28;20685;-79
2023/09/12 07:56:10;;;;;;;28.23;23.08;;;19.50;99.90;;;;;;5010646;28;20224;-78
2023/09/12 07:58:37;;;;;;;28.10;23.00;;;19.80;99.90;;;;;;5016659;28;20212;-79
2023/09/12 08:01:07;;;;;;;27.95;24.23;;;19.80;99.90;;;;;;5014019;28;20219;-79
2023/09/12 08:03:36;;;;;;;30.83;24.38;;;19.80;99.90;;;;;;5003732;28;20219;-79
2023/09/12 08:06:03;;;;;;;27.70;21.98;;;20.00;99.90;;;;;;5013642;28;20849;-79
2023/09/12 08:08:31;;;;;;;25.20;21.92;;;19.80;99.90;;;;;;5009708;28;20208;-79
2023/09/12 08:10:58;;;;;;;29.02;22.13;;;19.90;99.90;;;;;;5008966;28;20426;-80
2023/09/12 08:13:27;;;;;;;24.50;21.63;;;20.10;99.90;;;;;;5009988;28;20208;-79
2023/09/12 08:15:54;;;;;;;23.63;21.10;;;20.40;99.90;;;;;;5010829;28;20717;-79
2023/09/12 08:18:21;;;;;;;26.75;22.33;;;20.50;99.90;;;;;;5005514;28;20479;-79
2023/09/12 08:20:49;;;;;;;26.58;22.52;;;20.60;99.90;;;;;;5014509;28;20223;-79
2023/09/12 08:23:16;;;;;;;25.17;21.90;;;20.60;99.90;;;;;;5007286;28;20209;-78
2023/09/12 08:25:43;;;;;;;24.98;20.83;;;20.70;99.90;;;;;;5016692;28;20318;-79
2023/09/12 08:28:10;;;;;;;26.30;19.73;;;20.60;99.90;;;;;;5008006;28;20215;-79
2023/09/12 08:30:36;;;;;;;23.52;18.83;;;20.50;99.90;;;;;;5010837;28;20239;-78
2023/09/12 08:33:04;;;;;;;20.92;16.40;;;20.50;99.90;;;;;;5006148;28;20214;-79
2023/09/12 08:35:30;;;;;;;18.88;14.07;;;20.50;99.90;;;;;;5005137;28;20212;-78
2023/09/12 08:37:59;;;;;;;18.15;15.38;;;20.50;99.90;;;;;;5005760;28;20226;-79
2023/09/12 08:40:25;;;;;;;20.30;16.02;;;20.50;99.90;;;;;;5009570;28;20284;-78
2023/09/12 08:42:53;;;;;;;19.50;15.02;;;20.50;99.90;;;;;;5004347;28;20204;-79
2023/09/12 08:45:21;;;;;;;20.10;15.88;;;20.60;99.90;;;;;;5010442;28;20801;-79
2023/09/12 08:47:52;;;;;;;22.77;16.63;;;20.60;99.90;;;;;;5005339;28;20589;-79
2023/09/12 08:50:20;;;;;;;20.25;16.88;;;20.50;99.90;;;;;;5009511;28;20682;-80
2023/09/12 08:52:48;;;;;;;22.05;17.77;;;20.40;99.90;;;;;;5022597;28;20687;-79
2023/09/12 08:55:16;;;;;;;21.02;18.65;;;20.50;99.90;;;;;;5011956;28;20847;-79
2023/09/12 08:57:44;;;;;;;21.38;18.90;;;20.40;99.90;;;;;;5011567;28;20232;-78
2023/09/12 09:00:14;;;;;;;22.17;18.83;;;20.50;99.90;;;;;;5015321;28;20246;-80
2023/09/12 09:02:41;;;;;;;24.90;18.80;;;20.70;99.90;;;;;;5012462;28;20204;-80
2023/09/12 09:05:09;;;;;;;24.45;19.45;;;20.70;99.90;;;;;;5010216;28;20292;-79
2023/09/12 09:07:37;;;;;;;21.98;18.88;;;21.00;99.90;;;;;;5019489;28;20657;-79
2023/09/12 09:10:06;;;;;;;23.08;19.10;;;21.10;99.90;;;;;;5013342;28;20197;-79
2023/09/12 09:12:34;;;;;;;24.63;19.90;;;21.20;99.90;;;;;;5016118;28;20228;-79
2023/09/12 09:15:21;;;;;;;24.48;19.85;;;21.20;99.90;;;;;;5013401;28;20226;-79
2023/09/12 09:17:48;;;;;;;24.98;20.23;;;21.60;99.90;;;;;;5007439;28;20223;-80
2023/09/12 09:20:23;;;;;;;23.33;20.58;;;22.00;99.90;;;;;;5009573;28;20228;-79
2023/09/12 09:22:58;;;;;;;24.88;20.58;;;22.50;99.90;;;;;;5011991;28;20257;-79
2023/09/12 09:25:25;;;;;;;24.77;19.70;;;22.40;99.90;;;;;;5014561;28;20223;-80
2023/09/12 09:27:53;;;;;;;24.88;19.42;;;22.30;99.90;;;;;;5011720;28;20668;-80
2023/09/12 09:30:39;;;;;;;19.88;15.23;;;22.70;99.90;;;;;;5010460;28;20204;-79
2023/09/12 09:33:06;;;;;;;14.98;10.95;;;22.50;99.90;;;;;;5011817;28;20291;-79
2023/09/12 09:35:33;;;;;;;14.32;11.00;;;22.30;99.90;;;;;;5011550;28;20220;-79
2023/09/12 09:38:00;;;;;;;11.43;8.20;;;22.00;99.90;;;;;;5010144;28;20211;-79
2023/09/12 09:40:27;;;;;;;11.80;6.88;;;21.70;99.90;;;;;;5011877;28;20225;-79
2023/09/12 09:42:57;;;;;;;10.73;7.20;;;21.80;99.90;;;;;;5012161;28;20263;-78
2023/09/12 09:45:24;;;;;;;8.60;6.55;;;21.60;99.90;;;;;;5011696;28;20228;-79
2023/09/12 09:47:51;;;;;;;6.88;5.53;;;21.40;99.90;;;;;;5013758;28;20283;-79
2023/09/12 09:50:18;;;;;;;5.65;5.15;;;21.30;99.90;;;;;;5009067;28;20197;-79
2023/09/12 09:52:45;;;;;;;8.40;5.72;;;21.40;99.90;;;;;;5013364;28;20200;-80
2023/09/12 09:55:14;;;;;;;7.22;5.95;;;21.60;99.90;;;;;;5014024;28;20228;-78
2023/09/12 09:57:41;;;;;;;6.10;5.15;;;21.70;99.90;;;;;;5012399;28;20204;-80
2023/09/12 10:00:14;;;;;;;6.13;5.50;;;21.30;99.90;;;;;;5013134;28;20223;-79
2023/09/12 10:02:42;;;;;;;7.75;5.75;;;21.40;99.90;;;;;;5013750;28;20209;-79
2023/09/12 10:05:10;;;;;;;6.32;5.72;;;21.60;99.90;;;;;;5008845;28;20216;-79
2023/09/12 10:07:39;;;;;;;6.95;5.80;;;21.40;99.90;;;;;;5013487;28;20204;-79
2023/09/12 10:10:07;;;;;;;6.22;5.63;;;21.60;99.90;;;;;;5009089;28;20192;-79
2023/09/12 10:12:37;;;;;;;8.68;6.07;;;21.70;99.90;;;;;;5010655;28;20219;-78
2023/09/12 10:15:05;;;;;;;6.57;5.47;;;21.80;99.90;;;;;;5005107;28;20296;-78
2023/09/12 10:17:40;;;;;;;6.07;5.22;;;21.90;99.90;;;;;;5010349;28;20292;-79
2023/09/12 10:20:15;;;;;;;6.45;5.20;;;21.90;99.90;;;;;;5008046;28;20708;-80
2023/09/12 10:22:50;;;;;;;7.28;5.57;;;21.70;99.90;;;;;;5014125;28;20649;-79
2023/09/12 10:25:17;;;;;;;7.18;5.35;;;21.50;99.90;;;;;;5011926;28;20230;-80
2023/09/12 10:27:44;;;;;;;6.53;5.63;;;21.50;99.90;;;;;;5016485;28;20211;-80
2023/09/12 10:30:12;;;;;;;9.88;6.05;;;21.70;99.90;;;;;;5013346;28;20593;-79
2023/09/12 10:32:42;;;;;;;5.97;5.38;;;21.80;99.90;;;;;;5012736;28;20284;-79
2023/09/12 10:35:10;;;;;;;6.55;5.53;;;22.00;99.90;;;;;;5013876;28;20728;-79
2023/09/12 10:37:40;;;;;;;6.43;5.68;;;22.10;99.90;;;;;;5009874;28;20200;-79
2023/09/12 10:40:09;;;;;;;5.75;5.00;;;22.00;99.90;;;;;;5011932;28;20196;-79
2023/09/12 10:42:37;;;;;;;6.10;5.47;;;22.00;99.90;;;;;;5015753;28;20212;-79
2023/09/12 10:45:08;;;;;;;6.57;5.25;;;21.60;99.90;;;;;;5010713;28;20287;-79
2023/09/12 10:47:36;;;;;;;8.88;5.70;;;21.50;99.90;;;;;;5010562;28;20209;-78
2023/09/12 10:50:04;;;;;;;6.10;5.43;;;21.30;99.90;;;;;;5013264;28;20197;-80
2023/09/12 10:52:32;;;;;;;6.03;5.43;;;21.50;99.90;;;;;;5016176;28;20201;-79
2023/09/12 10:54:59;;;;;;;7.03;5.95;;;21.40;99.90;;;;;;5021511;28;20241;-79
2023/09/12 10:57:26;;;;;;;6.60;5.70;;;21.20;99.90;;;;;;5011353;28;20652;-78
2023/09/12 11:00:19;;;;;;;7.32;6.55;;;21.20;99.90;;;;;;5016825;28;20312;-79
2023/09/12 11:02:46;;;;;;;7.63;6.40;;;21.10;99.90;;;;;;4972192;28;20206;-79
2023/09/12 11:05:51;;;;;;;8.05;6.00;;;21.00;99.90;;;;;;5013512;28;20229;-79
2023/09/12 11:08:18;;;;;;;8.23;6.38;;;21.20;99.90;;;;;;5014665;28;20204;-79
2023/09/12 11:10:45;;;;;;;7.05;5.90;;;21.10;99.90;;;;;;5015579;28;20198;-79
2023/09/12 11:13:19;;;;;;;7.65;6.03;;;21.20;99.90;;;;;;5013594;28;20215;-79
2023/09/12 11:16:13;;;;;;;6.60;5.90;;;21.40;99.90;;;;;;5019858;28;20216;-79
2023/09/12 11:19:14;;;;;;;7.22;6.18;;;21.30;99.90;;;;;;5014679;28;20299;-79
2023/09/12 11:21:43;;;;;;;7.20;6.40;;;21.20;99.90;;;;;;5016027;28;20224;-79
2023/09/12 11:24:10;;;;;;;8.25;7.00;;;21.20;99.90;;;;;;5011523;28;20291;-79
2023/09/12 11:26:57;;;;;;;7.60;6.32;;;20.90;99.90;;;;;;5012895;28;20324;-79
2023/09/12 11:29:28;;;;;;;8.57;6.75;;;20.90;99.90;;;;;;5015001;28;20201;-79
2023/09/12 11:31:58;;;;;;;8.50;6.85;;;20.90;99.90;;;;;;5015722;28;20204;-79
2023/09/12 11:34:29;;;;;;;7.97;6.65;;;20.80;99.90;;;;;;5014792;28;20207;-84
2023/09/12 11:40:25;;;;;;;7.78;6.85;;;20.90;99.90;;;;;;5014909;28;20241;-79
2023/09/12 11:42:52;;;;;;;8.95;7.80;;;20.90;99.90;;;;;;5018982;28;20206;-79
2023/09/12 11:45:25;;;;;;;9.23;7.65;;;20.60;99.90;;;;;;5018761;28;20621;-79
2023/09/12 11:47:52;;;;;;;9.40;7.72;;;20.90;99.90;;;;;;5018640;28;20204;-79
2023/09/12 11:50:29;;;;;;;9.32;7.85;;;21.00;99.90;;;;;;5019070;28;20672;-79
2023/09/12 11:56:20;;;;;;;8.65;7.60;;;21.00;99.90;;;;;;5037266;28;20210;-79
2023/09/12 11:59:23;;;;;;;9.05;7.50;;;20.90;99.90;;;;;;5036161;28;20664;-78
2023/09/12 12:01:50;;;;;;;13.43;9.15;;;20.90;99.90;;;;;;5018666;28;20222;-78
2023/09/12 12:05:01;;;;;;;8.80;7.65;;;21.00;99.90;;;;;;5015631;28;20204;-78
2023/09/12 12:07:28;;;;;;;10.25;7.88;;;21.00;99.90;;;;;;5016573;28;20239;-79
2023/09/12 12:09:54;;;;;;;10.60;8.10;;;20.90;99.90;;;;;;5016524;28;20204;-78
2023/09/12 12:12:23;;;;;;;9.30;7.40;;;20.70;99.90;;;;;;5016024;28;20283;-79
2023/09/12 12:14:50;;;;;;;8.77;7.22;;;20.50;99.90;;;;;;5016447;28;20228;-78
2023/09/12 12:17:17;;;;;;;9.80;7.88;;;20.50;99.90;;;;;;5016516;28;20200;-78
2023/09/12 12:19:47;;;;;;;11.48;7.75;;;20.50;99.90;;;;;;5015989;28;20588;-78
2023/09/12 12:22:14;;;;;;;8.98;7.53;;;20.50;99.90;;;;;;5014884;28;20319;-78
2023/09/12 12:24:43;;;;;;;8.52;7.03;;;20.30;99.90;;;;;;5016578;28;20239;-78
2023/09/12 12:27:11;;;;;;;9.32;7.32;;;20.30;99.90;;;;;;5015551;28;20213;-79
2023/09/12 12:29:40;;;;;;;14.32;8.75;;;20.00;99.90;;;;;;5015662;28;20201;-78
2023/09/12 12:32:08;;;;;;;11.55;8.30;;;19.50;99.90;;;;;;5017493;28;20201;-79
2023/09/12 12:34:36;;;;;;;11.13;8.10;;;19.00;99.90;;;;;;5017132;28;20207;-79
2023/09/12 12:37:03;;;;;;;13.88;8.60;;;18.80;99.90;;;;;;5018680;28;20196;-79
2023/09/12 12:39:29;;;;;;;15.70;9.40;;;18.90;99.90;;;;;;5017901;28;20197;-79
2023/09/12 12:41:56;;;;;;;15.10;9.70;;;19.00;99.90;;;;;;5017267;28;20654;-78
2023/09/12 12:44:33;;;;;;;15.15;10.70;;;19.00;99.90;;;;;;5018034;28;20226;-78